Tiempo atmosférico en la estación meteorológica de Esterri d?Àneu, Lleida (940 m.)



Fecha
DESCASC
Temp. máxima en grados centígrados (hora)
DESCASC
Temp. mínima en grados centígrados (hora)
DESCASC
Temp. media en grados centígrados
DESCASC
Racha de viento máxima en m/sg (hora)
DESCASC
Velocidad máxima media en intervalos de 10 minutos(hora)
DESCASC
Precipitaciones diarias en mm
DESCASC
Precipitaciones de 00:00 a 06:00 en mm
DESCASC
Precipitaciones de 06:00 a 12:00 en mm
DESCASC
Precipitaciones de 12:00 a 18:00 en mm
DESCASC
Precipitaciones de 18:00 a 24:00 en mm
DESCASC

Gráficas

Temp. máximas Temp. mínimas Temp. medias Precipitaciones Rachas de viento máximas Velocidades máximas media en intervalos de 10 minutos

Datos horarios

Fecha y hora oficial Temperatura (ºC) Velocidad del viento (km/h) Dirección del viento Racha (km/h) Dirección de racha Precipitación (mm) Presión (hPa) Tendencia (hPa) Humedad (%)
2020-01-22 23:00:00 0.7 0 Calma 3 Este 0.4 -- -- 100
2020-01-22 22:00:00 0.7 0 Calma 0 Calma 1.8 -- -- 99
2020-01-22 21:00:00 0.6 0 Calma 0 Calma 2.8 -- -- 99
2020-01-22 20:00:00 0.6 0 Calma 0 Calma 2 -- -- 99
2020-01-22 19:00:00 0.6 0 Calma 0 Calma 1 -- -- 99
2020-01-22 18:00:00 0.6 0 Calma 0 Calma 1.6 -- -- 98
2020-01-22 17:00:00 0.7 0 Calma 0 Calma 2.4 -- -- 98
2020-01-22 16:00:00 0.8 0 Calma -- -- 1.8 -- -- 98
2020-01-22 15:00:00 0.7 0 Calma 0 Calma 2.6 -- -- 97
2020-01-22 14:00:00 0.7 0 Calma 0 Calma 3.2 -- -- 97
2020-01-22 13:00:00 1 0 Calma 0 Calma 0.4 -- -- 96
2020-01-22 12:00:00 1.3 0 Calma 0 Calma 0 -- -- 96
2020-01-22 11:00:00 0.9 0 Calma 0 Calma 0 -- -- 98
2020-01-22 10:00:00 0.6 0 Calma -- -- 0 -- -- 98
2020-01-22 09:00:00 0.3 0 Calma -- -- 0 -- -- 98
2020-01-22 08:00:00 0.3 0 Calma -- -- 0 -- -- 98
2020-01-22 07:00:00 0.3 0 Calma -- -- 0 -- -- 97
2020-01-22 06:00:00 0.4 0 Calma -- -- 0 -- -- 97
2020-01-22 05:00:00 0.4 0 Calma 2 Noroeste 0 -- -- 96
2020-01-22 04:00:00 0.8 0 Calma 6 Sudeste 1.8 -- -- 94
2020-01-22 03:00:00 2 0 Calma 4 Noroeste 1.6 -- -- 90
2020-01-22 02:00:00 2.2 0 Calma 5 Oeste 0 -- -- 81
2020-01-22 01:00:00 2.3 0 Calma 4 Oeste 0 -- -- 79
2020-01-22 00:00:00 2.4 0 Calma 4 Norte 0 -- -- 77
2020-01-21 23:00:00 3.8 2 Noroeste 10 Sudeste 0 -- -- 71
2020-01-21 22:00:00 5.8 3 Este 14 Nordeste 0 -- -- 63
2020-01-21 21:00:00 1.8 2 Sudeste 6 Sudeste 0 -- -- 84
2020-01-21 20:00:00 2.8 0 Calma 5 Noroeste 0 -- -- 80
2020-01-21 19:00:00 4 0 Calma 5 Norte 0 -- -- 77
2020-01-21 18:00:00 4.9 0 Calma 6 Sudeste 0 -- -- 74
2020-01-21 17:00:00 5.5 0 Calma 6 Sur 0 -- -- 71
2020-01-21 16:00:00 5.9 0 Calma 5 Sudeste 0 -- -- 67
2020-01-21 15:00:00 5.8 0 Calma 10 Norte 0 -- -- 65
2020-01-21 14:00:00 5.5 4 Oeste 9 Sur 0 -- -- 62
2020-01-21 13:00:00 4.8 2 Sur 6 Sur 0 -- -- 60
2020-01-21 12:00:00 3.6 2 Noroeste 4 Oeste 0 -- -- 64
2020-01-21 11:00:00 2.3 3 Sur 5 Sudeste 0 -- -- 69
2020-01-21 10:00:00 0.7 0 Calma 5 Noroeste 0 -- -- 74
2020-01-21 09:00:00 -0.2 0 Calma 9 Nordeste 0 -- -- 75
2020-01-21 08:00:00 0 3 Norte 6 Noroeste 0 -- -- 74
2020-01-21 07:00:00 0 0 Calma 5 Este 0 -- -- 73
2020-01-21 06:00:00 -0.2 0 Calma 4 Sudoeste 0 -- -- 75
2020-01-21 05:00:00 -0.4 0 Calma 4 Sudeste 0 -- -- 74
2020-01-21 04:00:00 -0.5 0 Calma 5 Sudeste 0 -- -- 74
2020-01-21 03:00:00 -0.6 0 Calma 7 Sudeste 0 -- -- 72
2020-01-21 02:00:00 -0.2 0 Calma 3 Sur 0 -- -- 70
2020-01-21 01:00:00 0.3 0 Calma 3 Oeste 0 -- -- 67
2020-01-21 00:00:00 0.8 0 Calma 6 Norte 0 -- -- 64
2020-01-20 23:00:00 2.6 3 Nordeste 12 Nordeste 0 -- -- 55
2020-01-20 22:00:00 2.5 0 Calma 13 Nordeste 0 -- -- 56
2020-01-20 21:00:00 3.4 4 Nordeste 16 Norte 0 -- -- 52
2020-01-20 20:00:00 3.6 6 Norte 21 Norte 0 -- -- 52
2020-01-20 19:00:00 3.7 8 Norte 22 Norte 0 -- -- 51
2020-01-20 18:00:00 3.9 8 Norte 24 Noroeste 0 -- -- 49
2020-01-20 17:00:00 4.4 8 Norte 31 Norte 0 -- -- 47
2020-01-20 16:00:00 4.8 15 Norte 34 Noroeste 0 -- -- 45
2020-01-20 15:00:00 5.7 14 Norte 31 Noroeste 0 -- -- 42
2020-01-20 14:00:00 5.5 15 Norte 32 Noroeste 0 -- -- 41
2020-01-20 13:00:00 4.9 12 Norte 28 Noroeste 0 -- -- 42
2020-01-20 12:00:00 3.6 9 Norte 28 Norte 0 -- -- 43
2020-01-20 11:00:00 2.3 11 Norte 24 Norte 0 -- -- 44
2020-01-20 10:00:00 1.6 6 Nordeste 17 Este 0 -- -- 42
2020-01-20 09:00:00 0.4 5 Este 11 Este 0 -- -- 41
2020-01-20 08:00:00 -0.5 2 Sur 17 Nordeste 0 -- -- 45
2020-01-20 07:00:00 -0.8 8 Nordeste 19 Nordeste 0 -- -- 44
2020-01-20 06:00:00 -1.2 4 Este 28 Noroeste 0 -- -- 48
2020-01-20 05:00:00 -0.8 6 Norte 24 Noroeste 0 -- -- 50
2020-01-20 04:00:00 -0.3 8 Norte 31 Noroeste 0 -- -- 46
2020-01-20 03:00:00 -0.2 12 Norte 39 Norte 0 -- -- 47
2020-01-20 02:00:00 -0.3 14 Noroeste 28 Noroeste 0 -- -- 49
2020-01-20 01:00:00 0 12 Norte 41 Norte 0 -- -- 51
2020-01-20 00:00:00 0.4 15 Norte 39 Nordeste 0 -- -- 52
2020-01-19 23:00:00 0.9 14 Norte 40 Norte 0 -- -- 50
2020-01-19 22:00:00 1.2 15 Norte 40 Noroeste 0 -- -- 49
2020-01-19 21:00:00 1.2 16 Norte 44 Norte 0 -- -- 46
2020-01-19 20:00:00 1.1 22 Norte 49 Noroeste 0 -- -- 43
2020-01-19 19:00:00 1.4 20 Norte 49 Norte 0 -- -- 44
2020-01-19 18:00:00 1.8 24 Norte 48 Norte 0 -- -- 42
2020-01-19 17:00:00 2.3 18 Norte 55 Norte 0 -- -- 41
2020-01-19 16:00:00 3.2 16 Norte 45 Norte 0 -- -- 46
2020-01-19 15:00:00 4.2 16 Norte 50 Norte 0 -- -- 43
2020-01-19 14:00:00 5.3 18 Norte 46 Nordeste 0 -- -- 43
2020-01-19 13:00:00 4.9 21 Norte 48 Norte 0 -- -- 47
2020-01-19 12:00:00 4.7 20 Norte 51 Norte 0 -- -- 47
2020-01-19 11:00:00 5.7 16 Norte 40 Noroeste 0 -- -- 35
2020-01-19 10:00:00 4.9 19 Norte 42 Noroeste 0 -- -- 36
2020-01-19 09:00:00 4.8 21 Norte 39 Noroeste 0 -- -- 29
2020-01-19 08:00:00 5 8 Norte 32 Noroeste 0 -- -- 54
2020-01-19 07:00:00 5.3 15 Noroeste 29 Noroeste 0 -- -- 59
2020-01-19 06:00:00 1.3 5 Norte 20 Noroeste 0 -- -- 81
2020-01-19 05:00:00 -0.7 0 Calma 5 Noroeste 0 -- -- 82
2020-01-19 04:00:00 -1.1 0 Calma 4 Noroeste 0 -- -- 83
2020-01-19 03:00:00 -1.5 0 Calma 4 Sur 0 -- -- 83
2020-01-19 02:00:00 -1.9 0 Calma 2 Sudeste 0 -- -- 81
2020-01-19 01:00:00 -1.8 0 Calma 4 Sudoeste 0 -- -- 81
2020-01-19 00:00:00 -1.8 0 Calma 3 Nordeste 0 -- -- 80
2020-01-18 23:00:00 -1.8 0 Calma 4 Sudoeste 0 -- -- 80
2020-01-18 22:00:00 -1.6 0 Calma 4 Sur 0 -- -- 76
2020-01-18 21:00:00 -1 0 Calma 4 Sur 0 -- -- 73
2020-01-18 20:00:00 0.1 0 Calma 3 Sur 0 -- -- 68
2020-01-18 19:00:00 2.5 0 Calma 4 Oeste 0 -- -- 59
2020-01-18 18:00:00 5.2 2 Norte 13 Nordeste 0 -- -- 47
2020-01-18 17:00:00 7.1 4 Norte 10 Norte 0 -- -- 42
2020-01-18 16:00:00 10.3 3 Noroeste 13 Sudeste 0 -- -- 32
2020-01-18 15:00:00 9.2 5 Sudeste 14 Sur 0 -- -- 33
2020-01-18 14:00:00 7.7 2 Sudoeste 11 Sur 0 -- -- 37
2020-01-18 13:00:00 5.3 5 Sur 10 Sur 0 -- -- 43
2020-01-18 12:00:00 2.8 0 Calma 4 Sur 0 -- -- 54
2020-01-18 11:00:00 1.1 3 Sur 5 Sur 0 -- -- 67
2020-01-18 10:00:00 -0.5 0 Calma 4 Sur 0 -- -- 71
2020-01-18 09:00:00 -1.3 0 Calma 7 Oeste 0 -- -- 75
2020-01-18 08:00:00 -1.9 0 Calma 5 Sudoeste 0 -- -- 77
2020-01-18 07:00:00 -2.3 0 Calma 3 Sur 0 -- -- 77
2020-01-18 06:00:00 -2 0 Calma 3 Sudeste 0 -- -- 73
2020-01-18 05:00:00 -1.5 0 Calma 4 Sudeste 0 -- -- 71
2020-01-18 04:00:00 0 2 Sur 5 Sur 0 -- -- 61
2020-01-18 03:00:00 2.6 0 Calma 13 Este 0 -- -- 50
2020-01-18 02:00:00 3.2 9 Nordeste 17 Norte 0 -- -- 48
2020-01-18 01:00:00 2 7 Norte 15 Norte 0 -- -- 55
2020-01-18 00:00:00 2.1 5 Norte 10 Nordeste 0 -- -- 56
2020-01-17 23:00:00 2.7 0 Calma 10 Norte 0 -- -- 57
2020-01-17 22:00:00 4.4 3 Norte 26 Noroeste 0 -- -- 50
2020-01-17 21:00:00 4.5 5 Norte 15 Norte 0 -- -- 53
2020-01-17 20:00:00 4.9 3 Norte 21 Norte 0 -- -- 51
2020-01-17 19:00:00 5.4 6 Norte 19 Norte 0 -- -- 49
2020-01-17 18:00:00 5.4 5 Norte 17 Noroeste 0 -- -- 52
2020-01-17 17:00:00 5.6 4 Norte 22 Norte 0 -- -- 57
2020-01-17 16:00:00 6.4 14 Norte 26 Norte 0 -- -- 61
2020-01-17 15:00:00 7 17 Noroeste 35 Noroeste 0 -- -- 63
2020-01-17 14:00:00 8.7 6 Norte 18 Nordeste 0 -- -- 66
2020-01-17 13:00:00 7.8 4 Norte 10 Noroeste 0 -- -- 74
2020-01-17 12:00:00 5.5 2 Sudeste 6 Sur 0 -- -- 73
2020-01-17 11:00:00 1.9 0 Calma 4 Sudoeste 0 -- -- 89
2020-01-17 10:00:00 -0.9 2 Sur 3 Sur 0 -- -- 94
2020-01-17 09:00:00 -1.5 0 Calma 3 Sur 0 -- -- 92
2020-01-17 08:00:00 -0.7 0 Calma 5 Sudeste 0 -- -- 90
2020-01-17 07:00:00 0.7 0 Calma 10 Sur 0 -- -- 87
2020-01-17 06:00:00 1.4 0 Calma 18 Oeste 0 -- -- 85
2020-01-17 05:00:00 0.5 3 Sudoeste 13 Sur 0 -- -- 87
2020-01-17 04:00:00 0.1 0 Calma 8 Noroeste 0 -- -- 88
2020-01-17 03:00:00 -0.3 2 Norte 7 Noroeste 0 -- -- 90
2020-01-17 02:00:00 -0.2 2 Sudoeste 10 Sudeste 0 -- -- 88
2020-01-17 01:00:00 -0.8 3 Noroeste 8 Noroeste 0 -- -- 88
2020-01-17 00:00:00 -0.6 2 Norte 8 Sudeste 0 -- -- 86
2020-01-16 23:00:00 -0.5 2 Nordeste 9 Sur 0 -- -- 88
2020-01-16 22:00:00 -1.1 0 Calma 4 Sur 0 -- -- 85
2020-01-16 21:00:00 -0.5 0 Calma 5 Sur 0 -- -- 83
2020-01-16 20:00:00 0.4 0 Calma 4 Sur 0 -- -- 80
2020-01-16 19:00:00 1.8 0 Calma 4 Sur 0 -- -- 74
2020-01-16 18:00:00 4.1 0 Calma 3 Sudoeste 0 -- -- 65
2020-01-16 17:00:00 7 0 Calma 8 Norte 0 -- -- 56
2020-01-16 16:00:00 11.1 3 Noroeste 7 Noroeste 0 -- -- 44
2020-01-16 15:00:00 10.2 2 Sur 9 Sur 0 -- -- 45
2020-01-16 14:00:00 8.8 2 Sur 6 Sudeste 0 -- -- 48
2020-01-16 13:00:00 4.8 0 Calma 6 Sudoeste 0 -- -- 61
2020-01-16 12:00:00 1.3 0 Calma 5 Sur 0 -- -- 75
2020-01-16 11:00:00 -2.1 0 Calma 4 Sur 0 -- -- 91
2020-01-16 10:00:00 -5.5 0 Calma 0 Calma 0 -- -- 93
2020-01-16 09:00:00 -6 0 Calma 0 Calma 0 -- -- 92
2020-01-16 08:00:00 -5.9 0 Calma 2 Sur 0 -- -- 91
2020-01-16 07:00:00 -5.6 0 Calma 2 Sur 0 -- -- 91
2020-01-16 06:00:00 -5.4 0 Calma 0 Calma 0 -- -- 90
2020-01-16 05:00:00 -5 0 Calma 2 Sudoeste 0 -- -- 90
2020-01-16 04:00:00 -4.7 0 Calma 2 Sur 0 -- -- 88
2020-01-16 03:00:00 -4.3 0 Calma 2 Sur 0 -- -- 88
2020-01-16 02:00:00 -3.8 0 Calma 2 Norte 0 -- -- 86
2020-01-16 01:00:00 -3.4 0 Calma 2 Nordeste 0 -- -- 85
2020-01-16 00:00:00 -2.8 0 Calma 4 Sur 0 -- -- 82
2020-01-15 23:00:00 -1.9 0 Calma 5 Sudoeste 0 -- -- 80
2020-01-15 22:00:00 -1.8 0 Calma 2 Sur 0 -- -- 81
2020-01-15 21:00:00 -1.2 2 Sur 3 Sur 0 -- -- 77
2020-01-15 20:00:00 -0.4 2 Sur 3 Sur 0 -- -- 75
2020-01-15 19:00:00 0.7 0 Calma 4 Sur 0 -- -- 70
2020-01-15 18:00:00 2.8 0 Calma 4 Sudeste 0 -- -- 61
2020-01-15 17:00:00 5.8 0 Calma 5 Oeste 0 -- -- 51
2020-01-15 16:00:00 9.9 0 Calma 7 Sudeste 0 -- -- 37
2020-01-15 15:00:00 8.9 5 Sur 8 Sur 0 -- -- 38
2020-01-15 14:00:00 7.5 2 Sur 6 Sur 0 -- -- 44
2020-01-15 13:00:00 3.4 0 Calma 7 Sudoeste 0 -- -- 55
2020-01-15 12:00:00 0.6 3 Sur 6 Sur 0 -- -- 68
2020-01-15 11:00:00 -3 0 Calma 4 Sur 0 -- -- 87
2020-01-15 10:00:00 -4.6 0 Calma 4 Sudeste 0 -- -- 90
2020-01-15 09:00:00 -5.8 0 Calma 4 Sur 0 -- -- 92
2020-01-15 08:00:00 -6.2 0 Calma 3 Sur 0 -- -- 90
2020-01-15 07:00:00 -5.9 0 Calma 3 Oeste 0 -- -- 89
2020-01-15 06:00:00 -5.4 0 Calma 3 Oeste 0 -- -- 89
2020-01-15 05:00:00 -5.1 0 Calma 2 Sur 0 -- -- 88
2020-01-15 04:00:00 -4.8 0 Calma 2 Sur 0 -- -- 88
2020-01-15 03:00:00 -4.1 0 Calma 2 Este 0 -- -- 85
2020-01-15 02:00:00 -3.7 0 Calma 2 Sur 0 -- -- 83
2020-01-15 01:00:00 -3.5 0 Calma 2 Sudeste 0 -- -- 82
2020-01-15 00:00:00 -3.4 0 Calma 2 Sur 0 -- -- 81
2020-01-14 23:00:00 -3 0 Calma 3 Sur 0 -- -- 79
2020-01-14 22:00:00 -2.5 0 Calma 3 Sur 0 -- -- 76
2020-01-14 21:00:00 -1.6 0 Calma 2 Sudoeste 0 -- -- 74
2020-01-14 20:00:00 -0.4 0 Calma 4 Sur 0 -- -- 68
2020-01-14 19:00:00 1.3 0 Calma 2 Norte 0 -- -- 61
2020-01-14 18:00:00 3.3 0 Calma 4 Noroeste 0 -- -- 55
2020-01-14 17:00:00 6.6 0 Calma 5 Norte 0 -- -- 47
2020-01-14 16:00:00 10.6 3 Sur 8 Sur 0 -- -- 29
2020-01-14 15:00:00 10.3 4 Sur 8 Sur 0 -- -- 30
2020-01-14 14:00:00 8.8 5 Sur 9 Sur 0 -- -- 31
2020-01-14 13:00:00 5.1 0 Calma 5 Sur 0 -- -- 40
2020-01-14 12:00:00 2.2 3 Sur 6 Sur 0 -- -- 53
2020-01-14 11:00:00 -1.9 0 Calma 3 Sur 0 -- -- 78
2020-01-14 10:00:00 -4.9 0 Calma 2 Sur 0 -- -- 89
2020-01-14 09:00:00 -5.3 0 Calma 2 Sur 0 -- -- 88
2020-01-14 08:00:00 -5.2 0 Calma 2 Sudeste 0 -- -- 87
2020-01-14 07:00:00 -4.6 0 Calma 3 Sur 0 -- -- 86
2020-01-14 06:00:00 -4.6 0 Calma 3 Sur 0 -- -- 86
2020-01-14 05:00:00 -5 0 Calma 2 Sudeste 0 -- -- 87
2020-01-14 04:00:00 -5.3 0 Calma 3 Sudoeste 0 -- -- 85
2020-01-14 03:00:00 -4.6 0 Calma 3 Noroeste 0 -- -- 84
2020-01-14 02:00:00 -4.4 0 Calma 4 Sur 0 -- -- 82
2020-01-14 01:00:00 -4.1 0 Calma 3 Oeste 0 -- -- 81
2020-01-14 00:00:00 -3.9 0 Calma 3 Este 0 -- -- 79
2020-01-13 23:00:00 -3.1 0 Calma 3 Sudoeste 0 -- -- 76
2020-01-13 22:00:00 -2.7 0 Calma 3 Sur 0 -- -- 75
2020-01-13 21:00:00 -1.7 0 Calma 3 Sur 0 -- -- 71
2020-01-13 20:00:00 -0.4 2 Oeste 5 Sur 0 -- -- 66
2020-01-13 19:00:00 1.3 0 Calma 4 Sur 0 -- -- 62
2020-01-13 18:00:00 3.7 0 Calma 2 Oeste 0 -- -- 55
2020-01-13 17:00:00 6.6 0 Calma 3 Sur 0 -- -- 45
2020-01-13 16:00:00 8.2 2 Sur 4 Norte 0 -- -- 34
2020-01-13 15:00:00 8.1 0 Calma 5 Sudeste 0 -- -- 32
2020-01-13 14:00:00 6.1 0 Calma 4 Sudoeste 0 -- -- 36
2020-01-13 13:00:00 3.1 0 Calma 5 Sur 0 -- -- 46
2020-01-13 12:00:00 0.4 0 Calma 3 Sur 0 -- -- 61
2020-01-13 11:00:00 -2.6 0 Calma 3 Sur 0 -- -- 78
2020-01-13 10:00:00 -5.6 0 Calma 3 Sur 0 -- -- 88
2020-01-13 09:00:00 -6.8 0 Calma 3 Sur 0 -- -- 88
2020-01-13 08:00:00 -6.9 0 Calma 3 Sur 0 -- -- 88
2020-01-13 07:00:00 -6.8 0 Calma 2 Este 0 -- -- 87
2020-01-13 06:00:00 -6.5 0 Calma 2 Sudeste 0 -- -- 86
2020-01-13 05:00:00 -6.2 0 Calma 3 Sur 0 -- -- 85
2020-01-13 04:00:00 -5.8 0 Calma 3 Norte 0 -- -- 86
2020-01-13 03:00:00 -5.2 0 Calma 2 Sur 0 -- -- 83
2020-01-13 02:00:00 -4.6 0 Calma 4 Sur 0 -- -- 82
2020-01-13 01:00:00 -4.3 0 Calma 4 Sur 0 -- -- 80
2020-01-13 00:00:00 -3.8 0 Calma 2 Sur 0 -- -- 79
2020-01-12 23:00:00 -3.3 0 Calma 3 Sur 0 -- -- 78
2020-01-12 22:00:00 -2.6 0 Calma 3 Sudeste 0 -- -- 76
2020-01-12 21:00:00 -1.7 0 Calma 2 Sudeste 0 -- -- 71
2020-01-12 20:00:00 -0.5 0 Calma 0 Calma 0 -- -- 64
2020-01-12 19:00:00 0.8 0 Calma 2 Este 0 -- -- 57
2020-01-12 18:00:00 3.1 0 Calma 3 Oeste 0 -- -- 50
2020-01-12 17:00:00 6.2 0 Calma 4 Norte 0 -- -- 39
2020-01-12 16:00:00 10.8 3 Sur 8 Sur 0 -- -- 24
2020-01-12 15:00:00 10.4 4 Sur 10 Sur 0 -- -- 26
2020-01-12 14:00:00 8.5 4 Sur 7 Sur 0 -- -- 32
2020-01-12 13:00:00 4.3 2 Sudoeste 6 Oeste 0 -- -- 37
2020-01-12 12:00:00 1.1 3 Sur 5 Sur 0 -- -- 49
2020-01-12 11:00:00 -3 0 Calma 4 Sudeste 0 -- -- 70
2020-01-12 10:00:00 -6.3 0 Calma 2 Sudeste 0 -- -- 82
2020-01-12 09:00:00 -6.7 0 Calma 3 Sudeste 0 -- -- 81
2020-01-12 08:00:00 -6.5 0 Calma 3 Oeste 0 -- -- 80
2020-01-12 07:00:00 -6.2 0 Calma 4 Sudeste 0 -- -- 79
2020-01-12 06:00:00 -6.1 0 Calma 2 Sur 0 -- -- 77
2020-01-12 05:00:00 -5.5 0 Calma 2 Oeste 0 -- -- 77
2020-01-12 04:00:00 -5.2 0 Calma 2 Sur 0 -- -- 75
2020-01-12 03:00:00 -4.7 0 Calma 2 Sudeste 0 -- -- 72
2020-01-12 02:00:00 -4 0 Calma 3 Sur 0 -- -- 69
2020-01-12 01:00:00 -3.3 0 Calma 2 Sur 0 -- -- 67
2020-01-12 00:00:00 -2.7 2 Sur 3 Oeste 0 -- -- 64
2020-01-11 23:00:00 -1.8 0 Calma 2 Oeste 0 -- -- 59
2020-01-11 22:00:00 -0.4 0 Calma 2 Sudeste 0 -- -- 55
2020-01-11 21:00:00 1.5 0 Calma 4 Nordeste 0 -- -- 47
2020-01-11 20:00:00 4.9 0 Calma 15 Nordeste 0 -- -- 32
2020-01-11 19:00:00 8.1 7 Nordeste 23 Norte 0 -- -- 22
2020-01-11 18:00:00 9.1 8 Nordeste 20 Nordeste 0 -- -- 20
2020-01-11 17:00:00 10.3 9 Nordeste 18 Noroeste 0 -- -- 20
2020-01-11 16:00:00 12.6 10 Noroeste 28 Noroeste 0 -- -- 16
2020-01-11 15:00:00 12.8 12 Noroeste 28 Noroeste 0 -- -- 16
2020-01-11 14:00:00 12.6 8 Noroeste 18 Oeste 0 -- -- 16
2020-01-11 13:00:00 8.9 5 Sur 9 Sudeste 0 -- -- 25
2020-01-11 12:00:00 5.7 2 Sudoeste 6 Sur 0 -- -- 29
2020-01-11 11:00:00 2.2 0 Calma 4 Sudoeste 0 -- -- 39
2020-01-11 10:00:00 -0.3 0 Calma 4 Norte 0 -- -- 51
2020-01-11 09:00:00 0.9 2 Sur 18 Nordeste 0 -- -- 41
2020-01-11 08:00:00 3.2 5 Nordeste 19 Norte 0 -- -- 29
2020-01-11 07:00:00 4.3 9 Nordeste 19 Este 0 -- -- 28
2020-01-11 06:00:00 3.9 10 Nordeste 22 Norte 0 -- -- 33
2020-01-11 05:00:00 4 10 Nordeste 22 Norte 0 -- -- 34
2020-01-11 04:00:00 4.1 8 Nordeste 27 Norte 0 -- -- 32
2020-01-11 03:00:00 4.5 10 Nordeste 21 Nordeste 0 -- -- 33
2020-01-11 02:00:00 4.5 3 Norte 21 Norte 0 -- -- 33
2020-01-11 01:00:00 4.2 13 Nordeste 23 Nordeste 0 -- -- 41
2020-01-11 00:00:00 4.2 7 Nordeste 20 Norte 0 -- -- 42
2020-01-10 23:00:00 4.7 9 Norte 21 Norte 0 -- -- 44
2020-01-10 22:00:00 4.7 7 Norte 18 Norte 0 -- -- 49
2020-01-10 21:00:00 5.6 8 Norte 22 Noroeste 0 -- -- 49
2020-01-10 20:00:00 6.3 12 Norte 28 Nordeste 0 -- -- 47
2020-01-10 19:00:00 6.3 9 Norte 23 Noroeste 0 -- -- 52
2020-01-10 18:00:00 6.9 8 Norte 25 Norte 0 -- -- 53
2020-01-10 17:00:00 7.4 10 Norte 26 Noroeste 0 -- -- 52
2020-01-10 16:00:00 8.2 10 Noroeste 26 Noroeste 0 -- -- 51
2020-01-10 15:00:00 8.8 10 Norte 24 Noroeste 0 -- -- 48
2020-01-10 14:00:00 9.1 8 Noroeste 22 Noroeste 0 -- -- 48
2020-01-10 13:00:00 8.6 13 Norte 27 Noroeste 0 -- -- 48
2020-01-10 12:00:00 8 8 Norte 22 Noroeste 0 -- -- 47
2020-01-10 11:00:00 6.6 10 Noroeste 28 Noroeste 0 -- -- 51
2020-01-10 10:00:00 5.9 8 Norte 19 Noroeste 0 -- -- 50
2020-01-10 09:00:00 5.7 9 Norte 24 Noroeste 0 -- -- 61
2020-01-10 08:00:00 5.9 6 Norte 19 Noroeste 0 -- -- 58
2020-01-10 07:00:00 5.7 4 Nordeste 19 Norte 0 -- -- 67
2020-01-10 06:00:00 7.1 9 Norte 21 Noroeste 0 -- -- 57
2020-01-10 05:00:00 7.2 4 Norte 19 Nordeste 0 -- -- 56
2020-01-10 04:00:00 6.2 9 Noroeste 23 Norte 0 -- -- 62
2020-01-10 03:00:00 1.8 0 Calma 5 Oeste 0 -- -- 89
2020-01-10 02:00:00 1.6 0 Calma 5 Sudeste 0 -- -- 90
2020-01-10 01:00:00 1.4 0 Calma 3 Sudeste 0 -- -- 87
2020-01-10 00:00:00 1.6 0 Calma 5 Sudoeste 0 -- -- 86
2020-01-09 23:00:00 1.6 0 Calma 4 Sur 0 -- -- 86
2020-01-09 22:00:00 1.1 0 Calma 4 Noroeste 0 -- -- 87
2020-01-09 21:00:00 1.5 0 Calma 3 Sur 0 -- -- 85
2020-01-09 20:00:00 2.7 0 Calma 5 Nordeste 0 -- -- 80
2020-01-09 19:00:00 4 0 Calma 5 Sur 0 -- -- 77
2020-01-09 18:00:00 5.9 0 Calma 6 Sur 0 -- -- 70
2020-01-09 17:00:00 8.3 3 Norte 8 Norte 0 -- -- 62
2020-01-09 16:00:00 12.1 3 Sudoeste 8 Noroeste 0 -- -- 47
2020-01-09 15:00:00 11.6 4 Noroeste 8 Oeste 0 -- -- 52
2020-01-09 14:00:00 9.5 2 Sur 8 Sudoeste 0 -- -- 61
2020-01-09 13:00:00 6.3 2 Sur 10 Sur 0 -- -- 72
2020-01-09 12:00:00 3.4 0 Calma 6 Sur 0 -- -- 84
2020-01-09 11:00:00 0.3 0 Calma -- -- 0 -- -- 98
2020-01-09 10:00:00 -2.3 0 Calma -- -- 0 -- -- 96
2020-01-09 09:00:00 -2.5 0 Calma -- -- 0 -- -- 96
2020-01-09 08:00:00 -2.5 0 Calma -- -- 0 -- -- 95
2020-01-09 07:00:00 -2.4 0 Calma -- -- 0 -- -- 94
2020-01-09 06:00:00 -2.1 0 Calma -- -- 0 -- -- 94
2020-01-09 05:00:00 -1.8 0 Calma -- -- 0 -- -- 94
2020-01-09 04:00:00 -1.5 0 Calma -- -- 0 -- -- 93
2020-01-09 03:00:00 -1 0 Calma -- -- 0 -- -- 93
2020-01-09 02:00:00 -0.6 0 Calma -- -- 0 -- -- 91
2020-01-09 01:00:00 0 0 Calma -- -- 0 -- -- 89
2020-01-09 00:00:00 0.6 0 Calma -- -- 0 -- -- 87
2020-01-08 23:00:00 1.5 0 Calma -- -- 0 -- -- 84
2020-01-08 22:00:00 2.4 0 Calma 2 Este 0 -- -- 82
2020-01-08 21:00:00 3.9 0 Calma 3 Noroeste 0 -- -- 77
2020-01-08 20:00:00 5.7 0 Calma 3 Noroeste 0 -- -- 71
2020-01-08 19:00:00 8 0 Calma 3 Norte 0 -- -- 62
2020-01-08 18:00:00 10.7 2 Sur 10 Sudeste 0 -- -- 51
2020-01-08 17:00:00 12.2 7 Sudeste 15 Sur 0 -- -- 44
2020-01-08 16:00:00 12.8 10 Sudeste 19 Sur 0 -- -- 42
2020-01-08 15:00:00 13.5 11 Sur 19 Sudeste 0 -- -- 41
2020-01-08 14:00:00 12.6 8 Sur 13 Sur 0 -- -- 44
2020-01-08 13:00:00 10.3 3 Sudeste 11 Sur 0 -- -- 51
2020-01-08 12:00:00 7.4 5 Sur 8 Sur 0 -- -- 62
2020-01-08 11:00:00 3.2 0 Calma 4 Sur 0 -- -- 84
2020-01-08 10:00:00 0 0 Calma 5 Sudoeste 0 -- -- 89
2020-01-08 09:00:00 -0.3 0 Calma 8 Sur 0 -- -- 90
2020-01-08 08:00:00 -0.9 2 Sur 5 Sur 0 -- -- 88
2020-01-08 07:00:00 -0.8 0 Calma 4 Sudoeste 0 -- -- 88
2020-01-08 06:00:00 -0.3 0 Calma 6 Noroeste 0 -- -- 88
2020-01-08 05:00:00 -0.2 0 Calma 5 Noroeste 0 -- -- 85
2020-01-08 04:00:00 0.5 0 Calma 8 Oeste 0 -- -- 83
2020-01-08 03:00:00 0.5 0 Calma 6 Sudeste 0 -- -- 83
2020-01-08 02:00:00 1 0 Calma 4 Noroeste 0 -- -- 81
2020-01-08 01:00:00 1.6 0 Calma 4 Norte 0 -- -- 78
2020-01-08 00:00:00 2.1 0 Calma 6 Sur 0 -- -- 73
2020-01-07 23:00:00 3.4 0 Calma 4 Norte 0 -- -- 67
2020-01-07 22:00:00 4.5 2 Nordeste 6 Noroeste 0 -- -- 62
2020-01-07 21:00:00 6.2 0 Calma 3 Sur 0 -- -- 55
2020-01-07 20:00:00 8.7 2 Sudeste 10 Este 0 -- -- 40
2020-01-07 19:00:00 12 5 Nordeste 17 Norte 0 -- -- 30
2020-01-07 18:00:00 13 5 Nordeste 18 Noroeste 0 -- -- 25
2020-01-07 17:00:00 15.1 6 Norte 21 Noroeste 0 -- -- 23
2020-01-07 16:00:00 16.6 9 Norte 18 Norte 0 -- -- 20
2020-01-07 15:00:00 13.6 3 Sur 7 Oeste 0 -- -- 37
2020-01-07 14:00:00 10.5 0 Calma 7 Sur 0 -- -- 43
2020-01-07 13:00:00 7.1 0 Calma 6 Sudeste 0 -- -- 49
2020-01-07 12:00:00 3.2 0 Calma 3 Sur 0 -- -- 68
2020-01-07 11:00:00 -0.7 0 Calma 3 Sur 0 -- -- 90
2020-01-07 10:00:00 -3.8 0 Calma 4 Este 0 -- -- 93
2020-01-07 09:00:00 -4.2 0 Calma 3 Nordeste 0 -- -- 92
2020-01-07 08:00:00 -4.4 0 Calma 3 Sudeste 0 -- -- 91
2020-01-07 07:00:00 -4.3 0 Calma 3 Oeste 0 -- -- 92
2020-01-07 06:00:00 -4 0 Calma 3 Sur 0 -- -- 91
2020-01-07 05:00:00 -3.8 0 Calma 3 Sur 0 -- -- 92
2020-01-07 04:00:00 -3.5 0 Calma 4 Sur 0 -- -- 92
2020-01-07 03:00:00 -3.2 0 Calma 3 Este 0 -- -- 91
2020-01-07 02:00:00 -2.6 0 Calma 5 Oeste 0 -- -- 89
2020-01-07 01:00:00 -2.3 0 Calma 4 Sur 0 -- -- 88
2020-01-07 00:00:00 -1.9 0 Calma 7 Sur 0 -- -- 88
2020-01-06 23:00:00 -1.3 0 Calma 3 Noroeste 0 -- -- 88
2020-01-06 22:00:00 -0.7 0 Calma 4 Sur 0 -- -- 85
2020-01-06 21:00:00 -0.2 0 Calma 3 Sur 0 -- -- 85
2020-01-06 20:00:00 0.9 0 Calma 3 Sur 0 -- -- 79
2020-01-06 19:00:00 2.4 0 Calma 4 Norte 0 -- -- 75
2020-01-06 18:00:00 4.3 0 Calma 4 Norte 0 -- -- 67
2020-01-06 17:00:00 7.1 0 Calma 6 Sur 0 -- -- 57
2020-01-06 16:00:00 10.9 5 Sur 9 Sur 0 -- -- 42
2020-01-06 15:00:00 11.3 4 Sur 7 Sudeste 0 -- -- 40
2020-01-06 14:00:00 10.2 2 Sur 6 Sur 0 -- -- 45
2020-01-06 13:00:00 6.5 0 Calma 5 Sur 0 -- -- 55
2020-01-06 12:00:00 2.9 0 Calma 4 Sur 0 -- -- 70
2020-01-06 11:00:00 -0.6 0 Calma 3 Sur 0 -- -- 84
2020-01-06 10:00:00 -3.7 0 Calma -- -- 0 -- -- 90